createdAt,value
2023-06-30T00:08:44.854Z,21.40
2023-06-30T00:18:47.384Z,21.30
2023-06-30T00:28:49.050Z,21.20
2023-06-30T00:38:52.612Z,21.10
2023-06-30T00:48:54.343Z,21.10
2023-06-30T00:58:57.195Z,21.00
2023-06-30T01:09:14.544Z,20.90
2023-06-30T01:19:27.344Z,20.80
2023-06-30T01:29:29.600Z,20.80
2023-06-30T01:39:31.432Z,20.70
2023-06-30T01:49:34.518Z,20.50
2023-06-30T01:59:36.212Z,20.50
2023-06-30T02:09:47.286Z,20.30
2023-06-30T02:19:49.927Z,20.30
2023-06-30T02:29:51.942Z,20.20
2023-06-30T02:39:53.627Z,20.20
2023-06-30T02:49:55.301Z,20.10
2023-06-30T02:59:57.006Z,20.10
2023-06-30T03:09:58.744Z,20.10
2023-06-30T03:20:00.552Z,19.90
2023-06-30T03:30:06.223Z,20.00
2023-06-30T03:40:08.335Z,19.90
2023-06-30T03:50:10.616Z,19.80
2023-06-30T04:00:13.647Z,19.80
2023-06-30T04:10:15.428Z,19.80
2023-06-30T04:20:17.228Z,19.90
2023-06-30T04:30:19.023Z,20.00
2023-06-30T04:40:20.944Z,20.10
2023-06-30T04:50:24.293Z,20.10
2023-06-30T05:00:27.152Z,20.20
2023-06-30T05:20:33.282Z,20.50
2023-06-30T05:30:35.037Z,20.50
2023-06-30T05:40:36.757Z,20.60
2023-06-30T05:50:39.025Z,20.70
2023-06-30T06:00:42.000Z,20.80
2023-06-30T06:10:44.673Z,20.90
2023-06-30T06:20:46.350Z,20.90
2023-06-30T06:30:49.453Z,20.80
2023-06-30T06:40:51.233Z,20.70
2023-06-30T06:50:53.936Z,20.70
2023-06-30T07:00:56.024Z,21.10
2023-06-30T07:10:57.736Z,21.50
2023-06-30T07:20:59.475Z,21.70
2023-06-30T07:31:01.528Z,22.20
2023-06-30T07:41:03.301Z,22.40
2023-06-30T07:51:09.302Z,22.50
2023-06-30T08:01:11.730Z,22.80
2023-06-30T08:11:13.450Z,23.00
2023-06-30T08:21:15.271Z,23.10
2023-06-30T08:31:17.077Z,23.40
2023-06-30T08:41:19.165Z,23.60
2023-06-30T08:51:21.640Z,24.00
2023-06-30T09:01:24.144Z,23.90
2023-06-30T09:11:30.413Z,24.10
2023-06-30T09:21:32.270Z,24.20
2023-06-30T09:31:34.692Z,24.40
2023-06-30T09:41:36.702Z,24.40
2023-06-30T09:51:40.374Z,24.50
2023-06-30T10:01:42.287Z,24.50
2023-06-30T10:11:45.298Z,24.50
2023-06-30T10:21:48.236Z,24.70
2023-06-30T10:31:50.368Z,25.10
2023-06-30T10:41:52.176Z,25.30
2023-06-30T10:51:56.609Z,25.50
2023-06-30T11:02:32.426Z,25.90
2023-06-30T11:12:54.956Z,26.00
2023-06-30T11:23:01.956Z,26.00
2023-06-30T11:33:06.182Z,25.60
2023-06-30T11:43:09.974Z,25.10
2023-06-30T11:53:11.946Z,25.10
2023-06-30T12:03:16.806Z,25.20
2023-06-30T12:13:18.679Z,25.00
2023-06-30T12:23:28.565Z,24.90
2023-06-30T12:33:30.409Z,25.00
2023-06-30T12:43:34.473Z,24.50
2023-06-30T12:53:36.342Z,24.20
2023-06-30T13:03:38.173Z,23.90
2023-06-30T13:13:40.052Z,23.60
2023-06-30T13:23:41.773Z,23.50
2023-06-30T13:33:43.470Z,23.60
2023-06-30T13:43:45.207Z,23.60
2023-06-30T13:53:46.912Z,23.90
2023-06-30T14:03:51.625Z,24.20
2023-06-30T14:13:54.544Z,24.20
2023-06-30T14:23:56.908Z,24.30
2023-06-30T14:33:58.738Z,25.00
2023-06-30T14:44:01.631Z,25.00
2023-06-30T14:54:03.677Z,24.70
2023-06-30T15:04:05.456Z,25.20
2023-06-30T15:14:07.337Z,26.10
2023-06-30T15:24:09.057Z,26.30
2023-06-30T15:34:10.732Z,26.00
2023-06-30T15:44:12.465Z,25.90
2023-06-30T15:54:14.221Z,26.30
2023-06-30T16:04:16.169Z,26.70
2023-06-30T16:14:17.937Z,25.00
2023-06-30T16:24:19.626Z,24.40
2023-06-30T16:34:21.404Z,24.10
2023-06-30T16:44:23.260Z,23.60
2023-06-30T16:54:24.952Z,24.20
2023-06-30T17:04:26.947Z,24.30
2023-06-30T17:14:28.697Z,25.90
2023-06-30T17:24:30.492Z,27.80
2023-06-30T17:44:34.448Z,31.70
2023-06-30T17:54:36.199Z,35.90
2023-06-30T18:04:38.623Z,34.00
2023-06-30T18:14:42.266Z,27.70
2023-06-30T18:24:44.029Z,25.50
2023-06-30T18:34:47.228Z,24.50
2023-06-30T18:44:48.931Z,23.80
2023-06-30T18:54:50.626Z,23.30
2023-06-30T19:04:52.435Z,22.90
2023-06-30T19:14:54.368Z,22.50
2023-06-30T19:24:56.237Z,22.10
2023-06-30T19:34:57.934Z,21.90
2023-06-30T19:44:59.696Z,21.70
2023-06-30T19:55:01.405Z,21.70
2023-06-30T20:05:04.623Z,21.60
2023-06-30T20:15:08.152Z,21.50
2023-06-30T20:25:10.810Z,21.40
2023-06-30T20:35:14.668Z,21.10
2023-06-30T20:45:17.055Z,21.00
2023-06-30T20:55:19.002Z,20.90
2023-06-30T21:05:20.877Z,20.70
2023-06-30T21:15:23.973Z,20.60
2023-06-30T21:25:25.764Z,20.50
2023-06-30T21:35:27.443Z,20.30
2023-06-30T21:45:29.134Z,20.20
2023-06-30T21:55:30.958Z,19.90
2023-06-30T22:05:32.689Z,19.80
2023-06-30T22:15:34.437Z,19.70
2023-06-30T22:25:36.258Z,19.70
2023-06-30T22:35:37.925Z,19.50
2023-06-30T22:45:39.706Z,19.40
2023-06-30T22:55:41.410Z,19.20
2023-06-30T23:05:43.126Z,19.00
2023-06-30T23:15:44.819Z,18.80
2023-06-30T23:25:47.505Z,18.60
2023-06-30T23:35:49.184Z,18.40
2023-06-30T23:45:51.779Z,18.30
2023-06-30T23:55:53.486Z,18.20
